createdAt,value
2023-02-06T00:04:33.609Z,10.43
2023-02-06T00:09:37.008Z,10.04
2023-02-06T00:14:40.449Z,9.63
2023-02-06T00:19:45.416Z,10.43
2023-02-06T00:24:48.874Z,10.50
2023-02-06T00:29:52.508Z,10.84
2023-02-06T00:34:57.533Z,10.35
2023-02-06T00:40:00.917Z,10.32
2023-02-06T00:45:05.113Z,10.78
2023-02-06T00:50:10.745Z,9.68
2023-02-06T00:55:14.573Z,9.81
2023-02-06T01:00:18.221Z,10.55
2023-02-06T01:05:23.000Z,10.83
2023-02-06T01:10:26.438Z,9.97
2023-02-06T01:15:29.879Z,9.57
2023-02-06T01:20:34.887Z,10.53
2023-02-06T01:25:40.606Z,9.86
2023-02-06T01:30:45.393Z,9.92
2023-02-06T01:35:57.216Z,10.53
2023-02-06T01:41:01.608Z,10.43
2023-02-06T01:46:05.665Z,10.70
2023-02-06T01:51:14.749Z,10.82
2023-02-06T01:56:19.641Z,10.92
2023-02-06T02:01:23.291Z,10.58
2023-02-06T02:06:28.555Z,10.36
2023-02-06T02:11:34.056Z,10.38
2023-02-06T02:16:43.615Z,11.00
2023-02-06T02:22:12.288Z,10.04
2023-02-06T02:27:39.356Z,10.36
2023-02-06T02:33:06.384Z,10.28
2023-02-06T02:38:19.327Z,10.04
2023-02-06T02:43:30.788Z,10.19
2023-02-06T02:48:37.258Z,10.15
2023-02-06T02:53:42.084Z,9.91
2023-02-06T02:58:47.303Z,10.42
2023-02-06T03:03:51.824Z,10.31
2023-02-06T03:09:04.556Z,9.83
2023-02-06T03:14:15.884Z,10.29
2023-02-06T03:19:22.878Z,9.45
2023-02-06T03:24:30.527Z,9.89
2023-02-06T03:29:35.245Z,9.77
2023-02-06T03:34:42.408Z,9.90
2023-02-06T03:39:47.208Z,9.18
2023-02-06T03:44:54.563Z,8.46
2023-02-06T03:49:59.897Z,9.07
2023-02-06T03:55:06.638Z,9.65
2023-02-06T04:00:11.774Z,9.55
2023-02-06T04:05:19.188Z,9.84
2023-02-06T04:10:26.226Z,9.88
2023-02-06T04:15:29.900Z,9.88
2023-02-06T04:20:33.411Z,8.00
2023-02-06T04:25:38.463Z,9.65
2023-02-06T04:30:42.189Z,9.48
2023-02-06T04:35:45.726Z,7.76
2023-02-06T04:40:50.577Z,9.11
2023-02-06T04:45:54.095Z,8.54
2023-02-06T04:50:57.538Z,7.94
2023-02-06T04:56:06.590Z,9.02
2023-02-06T05:01:10.121Z,9.37
2023-02-06T05:06:14.104Z,9.38
2023-02-06T05:11:19.030Z,9.29
2023-02-06T05:16:22.556Z,8.77
2023-02-06T05:21:26.565Z,8.88
2023-02-06T05:26:31.529Z,9.08
2023-02-06T05:31:35.420Z,9.44
2023-02-06T05:36:39.028Z,8.96
2023-02-06T05:41:43.795Z,6.88
2023-02-06T05:46:48.313Z,8.31
2023-02-06T05:51:51.853Z,8.19
2023-02-06T05:56:57.875Z,9.10
2023-02-06T06:02:01.491Z,8.17
2023-02-06T06:07:04.990Z,8.94
2023-02-06T06:12:10.103Z,8.35
2023-02-06T06:17:13.571Z,7.95
2023-02-06T06:22:16.984Z,8.63
2023-02-06T06:27:21.929Z,8.79
2023-02-06T06:32:25.471Z,9.09
2023-02-06T06:37:28.973Z,9.12
2023-02-06T06:42:33.876Z,9.40
2023-02-06T06:47:37.356Z,9.52
2023-02-06T06:52:40.811Z,9.43
2023-02-06T06:57:45.848Z,9.46
2023-02-06T07:02:49.361Z,9.54
2023-02-06T07:07:52.911Z,9.34
2023-02-06T07:12:57.813Z,9.24
2023-02-06T07:18:01.227Z,9.18
2023-02-06T07:23:05.310Z,9.34
2023-02-06T07:28:10.696Z,9.25
2023-02-06T07:33:14.305Z,9.68
2023-02-06T07:38:17.701Z,9.28
2023-02-06T07:43:22.600Z,9.32
2023-02-06T07:48:26.001Z,9.53
2023-02-06T07:53:29.644Z,9.78
2023-02-06T07:58:34.576Z,9.62
2023-02-06T08:03:38.153Z,9.44
2023-02-06T08:08:41.895Z,9.49
2023-02-06T08:13:47.411Z,9.89
2023-02-06T08:18:51.314Z,9.95
2023-02-06T08:23:55.952Z,9.84
2023-02-06T08:29:02.919Z,9.99
2023-02-06T08:34:07.193Z,9.75
2023-02-06T08:39:12.659Z,9.44
2023-02-06T08:44:19.295Z,9.70
2023-02-06T08:49:26.792Z,9.65
2023-02-06T08:54:30.260Z,9.50
2023-02-06T08:59:35.444Z,9.31
2023-02-06T09:04:39.163Z,9.71
2023-02-06T09:09:42.549Z,10.35
2023-02-06T09:14:47.515Z,10.52
2023-02-06T09:19:50.984Z,10.10
2023-02-06T09:24:54.747Z,10.36
2023-02-06T09:29:59.606Z,11.21
2023-02-06T09:35:04.504Z,11.35
2023-02-06T09:40:10.573Z,11.69
2023-02-06T09:45:18.429Z,11.84
2023-02-06T09:50:28.797Z,12.28
2023-02-06T09:55:37.784Z,12.19
2023-02-06T10:00:47.776Z,12.09
2023-02-06T10:05:55.944Z,11.20
2023-02-06T10:11:01.624Z,10.84
2023-02-06T10:16:10.450Z,11.49
2023-02-06T10:21:22.716Z,10.57
2023-02-06T10:26:26.177Z,12.08
2023-02-06T10:31:47.562Z,12.13
2023-02-06T10:37:01.007Z,12.64
2023-02-06T10:42:09.171Z,13.27
2023-02-06T10:47:22.311Z,13.53
2023-02-06T10:52:27.848Z,13.10
2023-02-06T10:57:31.976Z,12.29
2023-02-06T11:02:44.336Z,13.77
2023-02-06T11:07:51.272Z,13.29
2023-02-06T11:13:06.012Z,13.32
2023-02-06T11:18:14.788Z,14.37
2023-02-06T11:23:20.260Z,13.42
2023-02-06T11:28:24.880Z,13.25
2023-02-06T11:33:39.457Z,14.37
2023-02-06T11:38:55.536Z,14.13
2023-02-06T11:44:02.532Z,14.65
2023-02-06T11:49:16.245Z,14.89
2023-02-06T11:54:22.226Z,15.03
2023-02-06T11:59:27.341Z,15.30
2023-02-06T12:04:35.410Z,15.20
2023-02-06T12:09:38.902Z,14.45
2023-02-06T12:14:45.609Z,14.44
2023-02-06T12:19:53.374Z,14.40
2023-02-06T12:24:57.867Z,14.72
2023-02-06T12:30:07.342Z,14.47
2023-02-06T12:35:24.773Z,14.45
2023-02-06T12:40:38.711Z,14.88
2023-02-06T12:45:47.244Z,14.74
2023-02-06T12:51:07.672Z,15.00
2023-02-06T12:56:21.471Z,14.86
2023-02-06T13:01:41.283Z,14.34
2023-02-06T13:06:53.874Z,14.46
2023-02-06T13:12:09.139Z,14.98
2023-02-06T13:17:17.375Z,14.65
2023-02-06T13:22:40.828Z,14.82
2023-02-06T13:27:44.316Z,14.56
2023-02-06T13:32:50.337Z,14.12
2023-02-06T13:38:26.360Z,14.15
2023-02-06T13:43:31.768Z,14.34
2023-02-06T13:48:47.372Z,13.15
2023-02-06T13:54:17.001Z,13.71
2023-02-06T13:59:22.479Z,13.90
2023-02-06T14:04:28.213Z,13.91
2023-02-06T14:09:49.142Z,14.05
2023-02-06T14:15:04.336Z,13.56
2023-02-06T14:20:16.577Z,13.22
2023-02-06T14:25:35.400Z,13.53
2023-02-06T14:30:44.938Z,13.04
2023-02-06T14:35:58.885Z,12.96
2023-02-06T14:41:04.194Z,13.13
2023-02-06T14:46:12.019Z,12.78
2023-02-06T14:51:23.550Z,12.88
2023-02-06T14:56:31.470Z,12.80
2023-02-06T15:01:35.007Z,13.36
2023-02-06T15:06:39.468Z,13.42
2023-02-06T15:11:51.356Z,13.48
2023-02-06T15:16:59.176Z,12.88
2023-02-06T15:22:04.569Z,13.14
2023-02-06T15:27:16.454Z,12.98
2023-02-06T15:32:26.365Z,12.44
2023-02-06T15:37:32.240Z,12.48
2023-02-06T15:42:37.692Z,12.58
2023-02-06T15:47:42.340Z,12.59
2023-02-06T15:52:47.377Z,12.44
2023-02-06T15:57:52.427Z,12.32
2023-02-06T16:02:58.693Z,12.37
2023-02-06T16:08:03.211Z,11.89
2023-02-06T16:13:12.344Z,11.95
2023-02-06T16:18:25.715Z,11.97
2023-02-06T16:23:30.641Z,11.75
2023-02-06T16:28:42.034Z,11.61
2023-02-06T16:33:46.885Z,11.49
2023-02-06T16:39:02.881Z,11.34
2023-02-06T16:44:12.794Z,11.22
2023-02-06T16:49:18.995Z,11.25
2023-02-06T16:54:25.823Z,11.15
2023-02-06T16:59:30.936Z,10.78
2023-02-06T17:04:34.417Z,10.53
2023-02-06T17:09:37.959Z,10.54
2023-02-06T17:14:43.345Z,10.50
2023-02-06T17:19:47.610Z,10.46
2023-02-06T17:24:51.188Z,10.44
2023-02-06T17:29:56.083Z,10.30
2023-02-06T17:35:01.519Z,10.06
2023-02-06T17:40:05.882Z,9.97
2023-02-06T17:45:11.547Z,10.01
2023-02-06T17:50:17.452Z,10.11
2023-02-06T17:55:20.996Z,10.11
2023-02-06T18:00:26.665Z,10.13
2023-02-06T18:05:30.207Z,9.97
2023-02-06T18:10:33.784Z,9.94
2023-02-06T18:15:38.778Z,9.77
2023-02-06T18:20:43.794Z,9.85
2023-02-06T18:25:47.560Z,9.69
2023-02-06T18:30:52.529Z,9.34
2023-02-06T18:35:56.042Z,9.13
2023-02-06T18:41:03.744Z,9.05
2023-02-06T18:46:09.206Z,9.19
2023-02-06T18:51:12.746Z,9.23
2023-02-06T18:56:16.352Z,8.97
2023-02-06T19:01:22.548Z,9.03
2023-02-06T19:06:29.184Z,9.03
2023-02-06T19:11:32.728Z,9.09
2023-02-06T19:16:38.623Z,9.14
2023-02-06T19:21:43.997Z,8.99
2023-02-06T19:26:47.943Z,8.90
2023-02-06T19:31:53.103Z,8.81
2023-02-06T19:36:56.692Z,8.74
2023-02-06T19:42:00.272Z,8.62
2023-02-06T19:47:05.458Z,8.55
2023-02-06T19:52:09.516Z,8.46
2023-02-06T19:57:13.080Z,8.36
2023-02-06T20:02:17.996Z,8.24
2023-02-06T20:07:21.464Z,8.21
2023-02-06T20:12:24.956Z,8.18
2023-02-06T20:17:30.235Z,8.03
2023-02-06T20:22:33.739Z,7.82
2023-02-06T20:27:37.546Z,7.57
2023-02-06T20:32:42.492Z,7.65
2023-02-06T20:37:48.354Z,7.62
2023-02-06T20:42:51.808Z,7.57
2023-02-06T20:47:56.653Z,7.46
2023-02-06T20:53:00.144Z,7.50
2023-02-06T20:58:03.680Z,7.49
2023-02-06T21:03:08.640Z,7.60
2023-02-06T21:08:12.084Z,7.72
2023-02-06T21:13:15.489Z,7.74
2023-02-06T21:18:20.933Z,7.87
2023-02-06T21:23:25.090Z,7.74
2023-02-06T21:28:28.536Z,7.64
2023-02-06T21:33:33.550Z,7.47
2023-02-06T21:38:37.504Z,7.26
2023-02-06T21:43:41.197Z,7.17
2023-02-06T21:48:46.091Z,7.08
2023-02-06T21:53:49.945Z,6.98
2023-02-06T21:58:53.676Z,6.89
2023-02-06T22:03:59.581Z,6.75
2023-02-06T22:09:07.454Z,6.81
2023-02-06T22:14:13.195Z,6.80
2023-02-06T22:19:18.075Z,6.76
2023-02-06T22:24:22.037Z,6.69
2023-02-06T22:29:25.513Z,6.60
2023-02-06T22:34:30.313Z,6.66
2023-02-06T22:39:33.959Z,6.61
2023-02-06T22:44:37.588Z,6.52
2023-02-06T22:49:42.468Z,6.39
2023-02-06T22:54:46.124Z,6.46
2023-02-06T22:59:49.725Z,6.71
2023-02-06T23:04:54.599Z,6.82
2023-02-06T23:09:58.060Z,6.48
2023-02-06T23:15:01.481Z,6.39
2023-02-06T23:20:07.046Z,6.63
2023-02-06T23:25:10.563Z,6.73
2023-02-06T23:30:14.618Z,6.64
2023-02-06T23:35:19.500Z,6.60
2023-02-06T23:40:22.969Z,6.47
2023-02-06T23:45:26.938Z,6.70
2023-02-06T23:50:31.821Z,6.74
2023-02-06T23:55:35.571Z,6.56
